Time;durP1;ratioP1;P1;durP2;ratioP2;P2;SDS_P1;SDS_P2;PMS_P1;PMS_P2;Temp;Humidity;BMP_temperature;BMP_pressure;BME280_temperature;BME280_humidity;BME280_pressure;Samples;Min_cycle;Max_cycle;Signal;HPM_P1;HPM_P2
2023/04/01 00:01:07;;;;;;;31.93;17.63;;;;;;;12.10;72.42;93782.81;6329959;22;20590;-80
2023/04/01 00:03:35;;;;;;;31.60;18.00;;;;;;;12.03;72.68;93780.44;6330946;22;20261;-81
2023/04/01 00:06:02;;;;;;;41.30;18.10;;;;;;;12.05;71.98;93791.38;6329937;22;20163;-81
2023/04/01 00:08:30;;;;;;;40.13;18.30;;;;;;;11.96;72.42;93774.63;6331838;22;20171;-82
2023/04/01 00:10:58;;;;;;;37.80;18.47;;;;;;;11.92;72.41;93783.97;6326905;22;20198;-85
2023/04/01 00:13:26;;;;;;;37.37;17.43;;;;;;;11.97;72.67;93784.03;6330402;22;20170;-84
2023/04/01 00:15:54;;;;;;;36.37;17.70;;;;;;;11.72;72.98;93755.94;6331234;22;20164;-83
2023/04/01 00:18:21;;;;;;;39.97;18.40;;;;;;;11.97;72.70;93793.66;6332379;22;20544;-84
2023/04/01 00:20:50;;;;;;;31.50;17.77;;;;;;;11.89;72.66;93787.84;6331874;22;20164;-85
2023/04/01 00:23:17;;;;;;;34.57;18.63;;;;;;;11.97;72.14;93791.03;6330312;22;20168;-83
2023/04/01 00:25:45;;;;;;;34.70;18.00;;;;;;;11.96;71.53;93792.84;6331219;22;20618;-81
2023/04/01 00:28:13;;;;;;;39.57;18.57;;;;;;;11.94;71.62;93779.31;6330526;22;20250;-81
2023/04/01 00:30:40;;;;;;;35.00;18.13;;;;;;;11.89;72.33;93781.84;6332373;22;20565;-82
2023/04/01 00:33:07;;;;;;;26.77;16.23;;;;;;;11.82;72.71;93781.28;6331075;22;20195;-82
2023/04/01 00:35:34;;;;;;;32.30;16.73;;;;;;;11.73;72.36;93777.53;6331265;22;20172;-83
2023/04/01 00:38:01;;;;;;;28.67;17.00;;;;;;;11.77;73.59;93776.03;6330817;22;20691;-83
2023/04/01 00:40:31;;;;;;;35.53;17.00;;;;;;;11.71;75.81;93784.81;6332752;22;20160;-83
2023/04/01 00:42:59;;;;;;;29.00;16.33;;;;;;;11.69;77.85;93766.84;6331842;22;20164;-82
2023/04/01 00:45:42;;;;;;;29.10;16.97;;;;;;;11.63;78.08;93778.19;6332785;22;20167;-83
2023/04/01 00:48:12;;;;;;;31.87;17.27;;;;;;;11.52;78.97;93752.31;6331655;22;20202;-83
2023/04/01 00:50:42;;;;;;;29.17;16.40;;;;;;;11.51;79.63;93767.16;6332381;22;20195;-83
2023/04/01 00:53:10;;;;;;;28.90;16.73;;;;;;;11.57;79.02;93757.59;6332572;22;20727;-81
2023/04/01 00:55:40;;;;;;;31.53;16.43;;;;;;;11.57;77.77;93749.78;6331093;22;20175;-79
2023/04/01 00:58:12;;;;;;;29.33;15.13;;;;;;;11.54;78.25;93745.88;6329287;22;20164;-79
2023/04/01 01:00:40;;;;;;;27.77;15.13;;;;;;;11.57;79.06;93741.97;6329943;22;20629;-79
2023/04/01 01:03:07;;;;;;;28.97;14.73;;;;;;;11.51;77.39;93740.38;6330625;22;20172;-78
2023/04/01 01:05:47;;;;;;;28.87;14.57;;;;;;;11.36;77.92;93722.78;6333628;22;20168;-78
2023/04/01 01:08:21;;;;;;;25.30;14.47;;;;;;;11.19;79.80;93711.69;6331645;22;20516;-78
2023/04/01 01:10:50;;;;;;;30.70;14.30;;;;;;;11.24;79.67;93714.34;6331372;22;20523;-80
2023/04/01 01:13:23;;;;;;;27.03;14.07;;;;;;;11.25;79.08;93729.72;6332582;22;20192;-80
2023/04/01 01:15:59;;;;;;;31.67;15.10;;;;;;;11.20;79.19;93715.84;6332329;22;20187;-80
2023/04/01 01:18:34;;;;;;;32.00;14.20;;;;;;;11.18;80.27;93715.31;6333944;22;20189;-80
2023/04/01 01:21:30;;;;;;;25.10;14.70;;;;;;;11.20;80.37;93711.44;6333143;22;20155;-81
2023/04/01 01:24:24;;;;;;;29.03;14.57;;;;;;;11.21;81.28;93704.41;6332553;22;20221;-81
2023/04/01 01:26:58;;;;;;;23.77;14.10;;;;;;;11.23;80.81;93703.13;6289763;22;20171;-81
2023/04/01 01:29:57;;;;;;;25.47;14.67;;;;;;;11.21;82.42;93697.41;6332236;22;20235;-80
2023/04/01 01:32:45;;;;;;;27.83;14.53;;;;;;;11.26;82.79;93687.03;6322825;22;20214;-80
2023/04/01 01:35:25;;;;;;;27.47;14.60;;;;;;;11.25;81.88;93677.69;6329096;22;20502;-79
2023/04/01 01:37:56;;;;;;;26.87;13.97;;;;;;;11.21;82.76;93676.59;6330576;22;20162;-79
2023/04/01 01:40:24;;;;;;;23.50;12.90;;;;;;;11.29;82.43;93685.78;6332903;22;20148;-79
2023/04/01 01:42:55;;;;;;;22.23;13.17;;;;;;;11.33;82.05;93684.25;6330968;22;20190;-79
2023/04/01 01:45:26;;;;;;;22.73;12.83;;;;;;;11.28;82.85;93686.81;6331219;22;20163;-79
2023/04/01 01:47:54;;;;;;;29.07;12.47;;;;;;;11.31;82.84;93689.69;6331545;22;20203;-79
2023/04/01 01:50:24;;;;;;;25.73;12.43;;;;;;;11.41;82.70;93696.81;6331921;22;20179;-79
2023/04/01 01:52:51;;;;;;;26.60;12.13;;;;;;;11.35;81.81;93682.97;6332763;22;20618;-79
2023/04/01 01:55:28;;;;;;;20.90;11.57;;;;;;;11.37;81.59;93687.91;6331393;22;20895;-82
2023/04/01 01:57:57;;;;;;;22.57;12.57;;;;;;;11.33;82.59;93679.84;6332134;22;20163;-81
2023/04/01 02:00:24;;;;;;;22.37;11.70;;;;;;;11.28;83.56;93666.00;6331919;22;20179;-79
2023/04/01 02:02:51;;;;;;;19.37;10.67;;;;;;;11.35;82.01;93676.97;6330282;22;20638;-79
2023/04/01 02:05:21;;;;;;;20.17;10.67;;;;;;;11.36;80.88;93668.94;6332924;22;20167;-79
2023/04/01 02:07:55;;;;;;;18.30;10.07;;;;;;;11.16;80.76;93666.16;6330264;22;20172;-79
2023/04/01 02:10:25;;;;;;;22.63;10.63;;;;;;;11.19;80.18;93668.28;6329965;22;20622;-79
2023/04/01 02:12:54;;;;;;;20.27;10.40;;;;;;;11.22;81.26;93667.78;6331280;22;20197;-79
2023/04/01 02:15:22;;;;;;;18.37;10.27;;;;;;;11.23;80.94;93660.75;6332756;22;20171;-78
2023/04/01 02:17:51;;;;;;;23.27;11.13;;;;;;;11.27;80.18;93659.22;6332606;22;20167;-80
2023/04/01 02:20:20;;;;;;;20.73;11.53;;;;;;;11.22;79.99;93661.78;6332289;22;20203;-81
2023/04/01 02:22:51;;;;;;;21.73;11.50;;;;;;;11.23;80.81;93650.34;6332180;22;20253;-81
2023/04/01 02:25:21;;;;;;;25.57;12.93;;;;;;;11.24;81.03;93659.72;6332078;22;20171;-80
2023/04/01 02:27:48;;;;;;;27.57;13.57;;;;;;;11.28;81.74;93655.59;6333805;22;20160;-80
2023/04/01 02:30:18;;;;;;;27.10;12.63;;;;;;;11.36;81.18;93665.56;6332246;22;20171;-81
2023/04/01 02:32:46;;;;;;;25.37;12.67;;;;;;;11.33;80.77;93660.84;6332274;22;20187;-81
2023/04/01 02:35:15;;;;;;;21.43;12.47;;;;;;;11.28;81.33;93655.59;6331913;22;20186;-81
2023/04/01 02:37:43;;;;;;;35.40;12.40;;;;;;;11.34;81.09;93665.78;6332559;22;20159;-80
2023/04/01 02:40:13;;;;;;;26.43;12.20;;;;;;;11.41;80.43;93668.19;6333103;22;20174;-81
2023/04/01 02:42:40;;;;;;;28.40;12.23;;;;;;;11.47;79.55;93669.03;6331852;22;20164;-81
2023/04/01 02:45:09;;;;;;;27.90;13.87;;;;;;;11.45;79.93;93673.69;6331774;22;20651;-80
2023/04/01 02:47:36;;;;;;;30.47;13.47;;;;;;;11.37;81.00;93672.31;6330873;22;20200;-80
2023/04/01 02:50:02;;;;;;;25.47;13.93;;;;;;;11.38;81.41;93685.09;6332940;22;20178;-79
2023/04/01 02:52:30;;;;;;;23.73;13.97;;;;;;;11.42;79.53;93672.38;6331797;22;20187;-81
2023/04/01 02:54:58;;;;;;;26.17;14.30;;;;;;;11.34;79.40;93676.19;6332065;22;20199;-81
2023/04/01 02:57:26;;;;;;;31.40;15.33;;;;;;;11.43;79.82;93691.38;6330328;22;20641;-80
2023/04/01 02:59:53;;;;;;;28.10;13.37;;;;;;;11.38;78.98;93695.50;6329897;22;20167;-80
2023/04/01 03:02:20;;;;;;;23.83;12.73;;;;;;;11.44;78.71;93706.72;6330140;22;20995;-80
2023/04/01 03:04:47;;;;;;;22.87;14.00;;;;;;;11.28;78.84;93700.59;6330172;22;20175;-79
2023/04/01 03:07:13;;;;;;;25.97;14.10;;;;;;;11.28;78.63;93707.63;6330843;22;20171;-80
2023/04/01 03:09:40;;;;;;;20.73;12.67;;;;;;;11.19;79.41;93693.47;6330940;22;20182;-79
2023/04/01 03:12:07;;;;;;;22.13;12.07;;;;;;;11.22;79.75;93701.59;6331985;22;20817;-80
2023/04/01 03:14:35;;;;;;;25.17;12.23;;;;;;;11.23;78.60;93700.53;6331278;22;20171;-80
2023/04/01 03:17:02;;;;;;;28.53;11.53;;;;;;;11.16;79.35;93707.75;6331344;22;20543;-81
2023/04/01 03:19:29;;;;;;;18.87;11.80;;;;;;;11.27;78.73;93706.03;6331789;22;20224;-81
2023/04/01 03:21:56;;;;;;;21.40;10.63;;;;;;;11.24;78.82;93686.50;6332971;22;20182;-81
2023/04/01 03:24:23;;;;;;;16.83;11.23;;;;;;;11.15;78.20;93714.00;6332185;22;20171;-81
2023/04/01 03:26:49;;;;;;;20.77;11.90;;;;;;;11.14;78.67;93715.00;6327867;22;20174;-81
2023/04/01 03:29:16;;;;;;;23.07;11.93;;;;;;;11.23;78.31;93705.75;6331072;22;20175;-81
2023/04/01 03:31:44;;;;;;;20.67;12.30;;;;;;;11.17;79.71;93696.31;6331280;22;20999;-82
2023/04/01 03:34:11;;;;;;;27.77;12.80;;;;;;;11.17;79.08;93698.13;6332783;22;20187;-82
2023/04/01 03:36:38;;;;;;;21.07;8.00;;;;;;;11.26;74.09;93694.06;6331076;22;20625;-81
2023/04/01 03:39:05;;;;;;;13.43;6.80;;;;;;;11.16;73.22;93654.97;6331583;22;20655;-80
2023/04/01 03:41:33;;;;;;;12.30;5.33;;;;;;;11.45;72.92;93674.50;6332595;22;20168;-81
2023/04/01 03:44:00;;;;;;;14.43;7.10;;;;;;;11.51;73.28;93650.09;6333204;22;20168;-80
2023/04/01 03:46:27;;;;;;;30.50;13.80;;;;;;;11.56;77.93;93642.31;6331943;22;20203;-79
2023/04/01 03:48:55;;;;;;;44.53;17.60;;;;;;;11.52;79.07;93635.22;6331772;22;20170;-79
2023/04/01 03:51:22;;;;;;;38.70;17.03;;;;;;;11.50;79.67;93621.69;6330409;22;20191;-79
2023/04/01 03:53:50;;;;;;;38.90;15.70;;;;;;;11.50;79.94;93617.28;6331338;22;20171;-79
2023/04/01 03:56:16;;;;;;;31.97;14.17;;;;;;;11.58;80.35;93605.63;6332086;22;20174;-80
2023/04/01 03:58:43;;;;;;;27.90;13.47;;;;;;;11.54;79.54;93607.19;6337239;22;20167;-80
2023/04/01 04:01:18;;;;;;;32.10;13.20;;;;;;;11.43;79.75;93580.28;6333911;22;20167;-80
2023/04/01 04:03:45;;;;;;;22.13;12.73;;;;;;;11.43;80.79;93589.94;6335943;22;20173;-80
2023/04/01 04:06:14;;;;;;;25.43;13.10;;;;;;;11.36;81.54;93582.31;6339331;22;20324;-80
2023/04/01 04:08:41;;;;;;;27.13;12.53;;;;;;;11.39;80.77;93587.81;6332066;22;20168;-80
2023/04/01 04:11:09;;;;;;;19.10;12.60;;;;;;;11.40;80.61;93578.97;6332396;22;20167;-80
2023/04/01 04:13:36;;;;;;;28.87;12.43;;;;;;;11.27;82.21;93576.00;6332572;22;20173;-80
2023/04/01 04:16:04;;;;;;;23.97;13.60;;;;;;;11.26;82.37;93566.63;6331844;22;20210;-81
2023/04/01 04:18:30;;;;;;;24.57;13.83;;;;;;;11.32;82.06;93566.41;6332589;22;20164;-80
2023/04/01 04:20:57;;;;;;;19.60;12.93;;;;;;;11.40;82.26;93563.34;6331428;22;20167;-79
2023/04/01 04:23:26;;;;;;;24.80;12.90;;;;;;;11.46;82.65;93548.56;6330670;22;20521;-79
2023/04/01 04:25:59;;;;;;;26.10;12.57;;;;;;;11.50;81.46;93554.06;6329328;22;20163;-80
2023/04/01 04:28:26;;;;;;;25.43;12.33;;;;;;;11.51;80.80;93555.63;6331491;22;20170;-79
2023/04/01 04:30:53;;;;;;;25.93;12.80;;;;;;;11.52;80.87;93572.78;6331352;22;20668;-81
2023/04/01 04:33:20;;;;;;;23.00;13.97;;;;;;;11.40;79.86;93573.75;6329963;22;20198;-81
2023/04/01 04:35:47;;;;;;;23.87;14.20;;;;;;;11.34;80.59;93553.94;6330736;22;20171;-80
2023/04/01 04:38:13;;;;;;;26.33;13.43;;;;;;;11.26;81.70;93545.81;6330985;22;20194;-81
2023/04/01 04:40:42;;;;;;;27.17;13.37;;;;;;;11.23;81.67;93554.13;6334535;22;20174;-81
2023/04/01 04:43:12;;;;;;;26.53;13.87;;;;;;;11.09;80.77;93553.75;6333260;22;20175;-81
2023/04/01 04:45:39;;;;;;;25.73;13.53;;;;;;;11.02;81.83;93542.78;6333492;22;20167;-83
2023/04/01 04:48:07;;;;;;;26.67;13.00;;;;;;;11.04;82.55;93543.31;6332647;22;20357;-83
2023/04/01 04:50:34;;;;;;;26.17;14.17;;;;;;;11.03;82.96;93515.75;6334686;22;20629;-84
2023/04/01 04:53:01;;;;;;;29.17;13.67;;;;;;;11.24;82.71;93521.88;6333798;22;20195;-80
2023/04/01 04:55:31;;;;;;;26.93;12.80;;;;;;;11.08;81.92;93520.97;6332690;22;20164;-80
2023/04/01 04:57:59;;;;;;;25.87;13.47;;;;;;;11.10;82.38;93520.75;6332518;22;20680;-81
2023/04/01 05:00:29;;;;;;;24.50;13.20;;;;;;;11.15;83.06;93521.56;6333371;22;20167;-81
2023/04/01 05:02:55;;;;;;;28.87;13.90;;;;;;;11.22;82.56;93526.56;6333956;22;20166;-80
2023/04/01 05:05:22;;;;;;;26.80;14.23;;;;;;;11.29;81.71;93516.72;6333424;22;20164;-80
2023/04/01 05:07:49;;;;;;;31.03;14.90;;;;;;;11.29;81.82;93514.91;6333188;22;20259;-81
2023/04/01 05:10:16;;;;;;;29.07;13.00;;;;;;;11.26;80.31;93509.41;6332535;22;20879;-80
2023/04/01 05:12:43;;;;;;;22.80;13.00;;;;;;;11.11;80.91;93489.28;6333490;22;20195;-81
2023/04/01 05:15:12;;;;;;;23.00;13.03;;;;;;;11.23;81.03;93504.72;6333218;22;20167;-80
2023/04/01 05:17:39;;;;;;;26.53;14.50;;;;;;;11.16;80.61;93491.16;6332234;22;20163;-82
2023/04/01 05:20:07;;;;;;;27.10;14.53;;;;;;;11.16;81.51;93504.16;6331881;22;20240;-81
2023/04/01 05:22:34;;;;;;;26.67;13.43;;;;;;;11.01;81.32;93468.44;6332487;22;20175;-81
2023/04/01 05:25:01;;;;;;;26.47;12.07;;;;;;;10.90;81.53;93456.41;6332460;22;20195;-83
2023/04/01 05:27:28;;;;;;;23.37;11.63;;;;;;;10.87;80.81;93461.31;6331606;22;20164;-84
2023/04/01 05:29:55;;;;;;;25.43;11.33;;;;;;;10.90;80.66;93482.38;6332458;22;20506;-83
2023/04/01 05:32:24;;;;;;;28.30;12.90;;;;;;;10.79;80.38;93465.16;6332515;22;20191;-82
2023/04/01 05:34:51;;;;;;;21.40;11.20;;;;;;;10.92;79.89;93489.94;6333671;22;20167;-82
2023/04/01 05:37:18;;;;;;;26.30;11.23;;;;;;;10.79;80.30;93478.16;6332714;22;20250;-84
2023/04/01 05:39:45;;;;;;;23.30;10.60;;;;;;;10.89;80.06;93477.41;6332380;22;20178;-81
2023/04/01 05:42:12;;;;;;;27.43;12.17;;;;;;;10.78;81.05;93482.56;6333094;22;20156;-84
2023/04/01 05:44:39;;;;;;;26.07;12.27;;;;;;;10.90;81.10;93471.22;6333808;22;20160;-85
2023/04/01 05:47:06;;;;;;;37.97;11.83;;;;;;;10.98;80.18;93468.94;6334141;22;20602;-82
2023/04/01 05:49:34;;;;;;;25.53;11.37;;;;;;;11.09;78.71;93474.97;6331025;22;20254;-81
2023/04/01 05:52:01;;;;;;;27.20;11.27;;;;;;;11.15;78.44;93474.75;6329687;22;20642;-81
2023/04/01 05:54:28;;;;;;;21.30;11.37;;;;;;;11.20;77.76;93472.19;6330379;22;20164;-82
2023/04/01 05:56:55;;;;;;;20.57;11.03;;;;;;;11.20;77.12;93463.59;6333017;22;20167;-81
2023/04/01 05:59:22;;;;;;;24.77;11.17;;;;;;;11.37;76.17;93470.22;6331433;22;20167;-82
2023/04/01 06:01:49;;;;;;;24.27;10.63;;;;;;;11.45;75.61;93470.78;6331043;22;20167;-82
2023/04/01 06:04:17;;;;;;;23.70;9.60;;;;;;;11.62;73.80;93474.00;6331421;22;20171;-81
2023/04/01 06:06:46;;;;;;;17.20;9.27;;;;;;;11.70;73.42;93476.94;6330720;22;20202;-81
2023/04/01 06:09:16;;;;;;;15.07;7.73;;;;;;;11.80;72.39;93474.34;6332492;22;20641;-81
2023/04/01 06:11:56;;;;;;;21.07;7.60;;;;;;;11.96;69.97;93462.19;6332341;22;20163;-80
2023/04/01 06:14:34;;;;;;;17.63;7.23;;;;;;;12.06;69.54;93466.66;6332094;22;20493;-81
2023/04/01 06:17:18;;;;;;;17.80;6.77;;;;;;;12.21;68.77;93472.69;6332839;22;20154;-86
2023/04/01 06:19:52;;;;;;;15.27;7.30;;;;;;;12.29;67.88;93453.97;6332737;22;20151;-83
2023/04/01 06:22:55;;;;;;;16.07;6.17;;;;;;;12.47;67.37;93471.69;6333709;22;20160;-85
2023/04/01 06:26:03;;;;;;;15.13;6.63;;;;;;;12.50;65.40;93470.38;6333530;22;20906;-84
2023/04/01 06:29:05;;;;;;;17.83;6.67;;;;;;;12.68;65.08;93467.28;6257801;22;20191;-83
2023/04/01 06:32:02;;;;;;;16.03;6.80;;;;;;;12.88;63.08;93461.31;6312342;22;20167;-83
2023/04/01 06:35:02;;;;;;;14.60;6.50;;;;;;;12.95;63.23;93474.88;6331849;22;20159;-81
2023/04/01 06:38:01;;;;;;;19.03;7.63;;;;;;;13.02;61.98;93464.94;6319089;22;20167;-80
2023/04/01 06:41:09;;;;;;;16.27;6.83;;;;;;;13.02;62.15;93451.91;6331115;22;20167;-83
2023/04/01 06:43:46;;;;;;;12.70;6.10;;;;;;;13.04;61.13;93440.16;6331242;22;20162;-83
2023/04/01 06:46:20;;;;;;;12.73;6.47;;;;;;;13.11;60.79;93439.94;6331699;22;20244;-82
2023/04/01 06:49:05;;;;;;;12.17;6.00;;;;;;;13.06;60.77;93434.69;6332075;22;20240;-83
2023/04/01 06:51:44;;;;;;;15.57;5.87;;;;;;;13.04;60.37;93434.94;6333358;22;20163;-82
2023/04/01 06:54:17;;;;;;;14.63;5.23;;;;;;;12.90;61.01;93417.50;6332596;22;20645;-82
2023/04/01 06:56:47;;;;;;;12.83;5.80;;;;;;;12.77;61.79;93403.16;6333085;22;20531;-82
2023/04/01 06:59:18;;;;;;;15.87;5.63;;;;;;;12.90;62.07;93417.50;6331697;22;20606;-80
2023/04/01 07:01:50;;;;;;;15.43;5.80;;;;;;;12.82;62.66;93421.41;6332482;22;20195;-81
2023/04/01 07:04:21;;;;;;;13.97;6.13;;;;;;;12.83;63.99;93427.41;6336552;22;20152;-85
2023/04/01 07:06:52;;;;;;;12.77;5.60;;;;;;;12.91;64.44;93417.25;6334536;22;20155;-83
2023/04/01 07:09:23;;;;;;;12.30;5.93;;;;;;;13.01;64.70;93426.88;6333060;22;20710;-84
2023/04/01 07:11:54;;;;;;;15.23;5.60;;;;;;;13.10;63.57;93417.53;6330856;22;20156;-83
2023/04/01 07:14:26;;;;;;;9.37;5.30;;;;;;;13.17;64.81;93417.22;6337029;22;20184;-83
2023/04/01 07:17:00;;;;;;;9.20;5.23;;;;;;;13.29;63.13;93422.94;6336817;22;20155;-82
2023/04/01 07:19:32;;;;;;;16.97;5.30;;;;;;;13.23;64.08;93414.34;6331846;22;20152;-83
2023/04/01 07:22:04;;;;;;;11.67;5.80;;;;;;;13.42;65.19;93411.97;6333001;22;20159;-81
2023/04/01 07:24:35;;;;;;;11.13;5.87;;;;;;;13.37;65.26;93391.88;6332443;22;20166;-83
2023/04/01 07:27:08;;;;;;;16.77;6.10;;;;;;;13.49;64.84;93402.81;6332339;22;20152;-87
2023/04/01 07:29:35;;;;;;;11.63;6.07;;;;;;;13.52;63.14;93430.97;6332777;22;20226;-84
2023/04/01 07:32:20;;;;;;;13.33;5.87;;;;;;;13.61;62.27;93447.66;6333555;22;20167;-82
2023/04/01 07:35:01;;;;;;;14.70;6.03;;;;;;;13.59;63.50;93396.78;6333693;22;20214;-83
2023/04/01 07:37:35;;;;;;;16.93;5.00;;;;;;;13.60;62.36;93427.03;6332114;22;20159;-82
2023/04/01 07:40:13;;;;;;;13.07;5.50;;;;;;;13.34;62.04;93410.66;6332227;22;20160;-82
2023/04/01 07:42:55;;;;;;;16.87;7.20;;;;;;;13.69;61.33;93435.88;6331845;22;20151;-82
2023/04/01 07:45:30;;;;;;;10.60;5.60;;;;;;;13.67;62.93;93422.31;6332112;22;20727;-82
2023/04/01 07:48:16;;;;;;;13.23;5.87;;;;;;;13.73;62.74;93420.47;6332727;22;20245;-83
2023/04/01 07:50:51;;;;;;;16.93;7.17;;;;;;;13.68;63.40;93423.09;6331897;22;20160;-82
2023/04/01 07:53:26;;;;;;;12.23;6.00;;;;;;;13.74;61.69;93414.97;6332243;22;20182;-83
2023/04/01 07:56:03;;;;;;;13.43;6.27;;;;;;;13.71;62.56;93405.06;6331735;22;20151;-83
2023/04/01 07:58:40;;;;;;;13.87;6.87;;;;;;;13.61;62.09;93392.06;6331681;22;20234;-83
2023/04/01 08:01:15;;;;;;;18.10;8.00;;;;;;;13.73;62.37;93418.66;6331576;22;20155;-83
2023/04/01 08:04:03;;;;;;;16.03;9.47;;;;;;;13.79;61.34;93393.28;6333588;22;20167;-83
2023/04/01 08:06:37;;;;;;;18.73;8.17;;;;;;;13.86;61.80;93384.09;6333344;22;20156;-82
2023/04/01 08:09:15;;;;;;;16.30;9.07;;;;;;;14.02;61.88;93405.72;6332347;22;20155;-83
2023/04/01 08:11:58;;;;;;;16.00;7.47;;;;;;;14.16;62.46;93404.84;6332262;22;20242;-83
2023/04/01 08:14:34;;;;;;;15.63;7.00;;;;;;;14.19;61.10;93393.06;6331312;22;20194;-83
2023/04/01 08:17:06;;;;;;;12.13;6.50;;;;;;;14.31;61.68;93385.69;6332015;22;20167;-83
2023/04/01 08:19:51;;;;;;;13.03;6.83;;;;;;;14.25;61.57;93368.47;6333148;22;20182;-83
2023/04/01 08:22:24;;;;;;;15.33;7.13;;;;;;;14.46;61.61;93375.13;6332779;22;20151;-81
2023/04/01 08:25:03;;;;;;;12.47;6.57;;;;;;;14.37;61.27;93383.84;6329371;22;20155;-81
2023/04/01 08:27:38;;;;;;;14.27;6.73;;;;;;;14.44;60.48;93347.69;6327887;22;20540;-79
2023/04/01 08:30:18;;;;;;;15.37;6.80;;;;;;;14.54;61.40;93343.19;6328125;22;20167;-81
2023/04/01 08:32:51;;;;;;;14.40;6.77;;;;;;;14.67;60.83;93355.63;6327226;22;20160;-82
2023/04/01 08:35:25;;;;;;;15.87;6.50;;;;;;;14.77;59.99;93352.91;6330378;22;20663;-80
2023/04/01 08:37:54;;;;;;;13.47;6.53;;;;;;;14.96;60.47;93342.53;6328968;22;20161;-80
2023/04/01 08:40:52;;;;;;;13.37;6.00;;;;;;;15.03;59.89;93316.06;6327872;22;20167;-80
2023/04/01 08:43:34;;;;;;;21.00;7.03;;;;;;;15.18;59.58;93321.13;6329189;22;20197;-81
2023/04/01 08:46:20;;;;;;;11.93;6.10;;;;;;;15.29;59.33;93296.41;6330055;22;20152;-81
2023/04/01 08:49:10;;;;;;;16.73;6.60;;;;;;;15.47;58.02;93290.44;6330530;22;20175;-81
2023/04/01 08:52:09;;;;;;;15.50;6.43;;;;;;;15.62;57.97;93281.59;6331432;22;20148;-79
2023/04/01 08:54:51;;;;;;;18.63;6.40;;;;;;;15.75;56.03;93289.56;6323691;22;20188;-82
2023/04/01 08:57:32;;;;;;;10.60;5.27;;;;;;;15.95;54.88;93293.72;6332768;22;20156;-80
2023/04/01 09:00:17;;;;;;;13.67;5.43;;;;;;;16.22;53.27;93317.41;6327113;22;20217;-81
2023/04/01 09:03:14;;;;;;;16.80;5.50;;;;;;;16.29;51.15;93307.38;6327414;22;20287;-79
2023/04/01 09:06:14;;;;;;;9.33;4.70;;;;;;;16.48;51.65;93307.31;6327176;22;20508;-79
2023/04/01 09:08:57;;;;;;;17.93;5.37;;;;;;;16.66;50.68;93309.16;6327747;22;20160;-84
2023/04/01 09:11:34;;;;;;;11.53;5.07;;;;;;;16.71;50.45;93301.19;6331127;22;20156;-82
2023/04/01 09:14:31;;;;;;;14.20;4.93;;;;;;;16.68;49.25;93301.75;6331393;22;20175;-82
2023/04/01 09:17:48;;;;;;;14.87;5.07;;;;;;;16.72;48.28;93289.63;6331024;22;20170;-83
2023/04/01 09:20:43;;;;;;;17.07;4.60;;;;;;;16.75;48.42;93302.16;6248822;22;20172;-81
2023/04/01 09:23:28;;;;;;;12.37;4.40;;;;;;;16.84;47.88;93299.66;6331063;22;20630;-84
2023/04/01 09:26:18;;;;;;;9.60;4.50;;;;;;;16.75;47.76;93280.41;6333105;22;20156;-81
2023/04/01 09:28:57;;;;;;;11.07;4.17;;;;;;;16.80;45.82;93283.72;6332988;22;20156;-82
2023/04/01 09:31:47;;;;;;;11.80;4.07;;;;;;;16.82;45.86;93292.09;6332967;22;20158;-79
2023/04/01 09:34:37;;;;;;;11.50;4.20;;;;;;;16.91;46.57;93284.31;6331910;22;20179;-81
2023/04/01 09:37:21;;;;;;;12.17;4.20;;;;;;;16.96;46.49;93279.75;6332933;22;20666;-84
2023/04/01 09:40:15;;;;;;;9.97;4.13;;;;;;;17.06;46.42;93272.75;6331399;22;20175;-83
2023/04/01 09:42:57;;;;;;;13.43;3.90;;;;;;;17.23;47.22;93265.09;6327440;22;20167;-85
2023/04/01 09:45:36;;;;;;;14.47;4.13;;;;;;;17.37;50.48;93232.47;6334127;22;20225;-84
2023/04/01 09:48:16;;;;;;;9.43;4.00;;;;;;;18.11;49.32;93246.91;6334668;22;20530;-83
2023/04/01 09:50:50;;;;;;;7.53;3.30;;;;;;;18.59;44.16;93236.53;6333746;22;20155;-83
2023/04/01 09:53:35;;;;;;;10.52;3.40;;;;;;;18.84;37.33;93231.72;6333182;22;20788;-84
2023/04/01 09:56:54;;;;;;;8.68;3.85;;;;;;;18.89;37.03;93226.31;6335447;22;20847;-85
2023/04/01 10:00:04;;;;;;;7.80;3.40;;;;;;;19.09;37.01;93225.75;6323310;22;20739;-85
2023/04/01 10:03:22;;;;;;;10.88;3.20;;;;;;;19.21;35.63;93236.47;6277505;22;20220;-85
2023/04/01 10:06:33;;;;;;;10.65;3.33;;;;;;;19.09;35.80;93226.53;6299973;22;20173;-86
2023/04/01 10:09:34;;;;;;;11.18;2.78;;;;;;;18.88;37.69;93198.41;6336253;22;20502;-86
2023/04/01 10:12:24;;;;;;;9.90;2.80;;;;;;;18.97;35.29;93238.72;6335652;22;20164;-86
2023/04/01 10:15:29;;;;;;;8.85;3.70;;;;;;;18.58;35.25;93213.16;6334685;22;20266;-85
2023/04/01 10:18:33;;;;;;;8.35;2.70;;;;;;;18.36;36.22;93192.91;6233841;22;20554;-84
2023/04/01 10:21:18;;;;;;;11.00;3.40;;;;;;;18.56;40.00;93191.63;6333174;22;20159;-85
2023/04/01 10:24:12;;;;;;;7.47;3.85;;;;;;;18.58;40.04;93182.38;6334731;22;20163;-85
2023/04/01 10:27:15;;;;;;;11.52;3.88;;;;;;;18.84;41.07;93187.75;6334332;22;20160;-86
2023/04/01 10:30:24;;;;;;;17.20;4.28;;;;;;;19.09;40.00;93194.94;6310544;22;20174;-83
2023/04/01 10:33:28;;;;;;;6.15;3.30;;;;;;;18.96;38.76;93189.78;6334246;22;20168;-85
2023/04/01 10:36:45;;;;;;;8.50;4.22;;;;;;;18.78;40.21;93193.44;6333899;22;20159;-84
2023/04/01 10:39:50;;;;;;;12.43;4.03;;;;;;;18.72;40.27;93197.28;6333042;22;20189;-83
2023/04/01 10:43:04;;;;;;;12.93;4.22;;;;;;;18.78;40.47;93177.63;6325309;22;20205;-87
2023/04/01 10:46:06;;;;;;;11.07;4.65;;;;;;;18.57;41.52;93178.19;6332635;22;20168;-87
2023/04/01 10:49:15;;;;;;;14.13;4.75;;;;;;;18.43;42.81;93159.06;6333313;22;20155;-86
2023/04/01 10:52:32;;;;;;;13.13;4.82;;;;;;;18.39;43.38;93165.97;6317587;22;20167;-84
2023/04/01 10:55:30;;;;;;;10.88;4.68;;;;;;;18.28;43.35;93167.31;6331467;22;20178;-85
2023/04/01 10:58:48;;;;;;;9.55;4.20;;;;;;;18.05;42.98;93160.53;6332441;22;20250;-78
2023/04/01 11:01:56;;;;;;;14.05;4.68;;;;;;;18.02;43.45;93155.88;6305208;22;20163;-84
2023/04/01 11:04:54;;;;;;;10.55;5.20;;;;;;;18.07;43.60;93151.28;6243146;22;20208;-85
2023/04/01 11:07:50;;;;;;;10.55;4.90;;;;;;;18.03;43.58;93157.44;6313049;22;20164;-86
2023/04/01 11:10:46;;;;;;;14.15;5.20;;;;;;;18.02;43.44;93155.88;6332006;22;20265;-87
2023/04/01 11:13:30;;;;;;;11.45;4.90;;;;;;;17.99;43.50;93151.22;6285488;22;20164;-86
2023/04/01 11:16:27;;;;;;;9.27;4.60;;;;;;;18.02;42.92;93155.88;6326895;22;20155;-87
2023/04/01 11:19:38;;;;;;;12.00;4.72;;;;;;;17.82;44.03;93149.25;6334904;22;20159;-87
2023/04/01 11:22:50;;;;;;;8.98;4.40;;;;;;;17.68;43.85;93150.41;6335802;22;20227;-87
2023/04/01 11:25:37;;;;;;;10.20;4.85;;;;;;;17.69;43.62;93165.84;6209104;23;20174;-86
2023/04/01 11:28:41;;;;;;;14.52;3.13;;;;;;;17.54;41.58;93197.75;6207717;23;20170;-87
2023/04/01 11:31:26;;;;;;;10.87;3.00;;;;;;;17.47;41.81;93234.88;6295478;22;20217;-86
2023/04/01 11:33:59;;;;;;;6.10;2.70;;;;;;;17.26;46.17;93246.88;6333108;22;20180;-86
2023/04/01 11:36:43;;;;;;;7.70;2.70;;;;;;;16.97;47.42;93233.28;6337060;22;20162;-87
2023/04/01 11:39:21;;;;;;;9.40;2.90;;;;;;;16.56;52.58;93270.00;6338568;22;20168;-87
2023/04/01 11:41:57;;;;;;;11.10;4.77;;;;;;;16.15;56.25;93285.56;6336924;22;20237;-87
2023/04/01 11:44:28;;;;;;;8.80;4.23;;;;;;;15.20;68.84;93316.38;6334334;22;20151;-85
2023/04/01 11:47:28;;;;;;;12.47;3.27;;;;;;;14.02;82.14;93332.56;6334007;22;20199;-85
2023/04/01 11:50:10;;;;;;;6.67;3.73;;;;;;;13.01;91.19;93352.03;6330104;22;20172;-85
2023/04/01 11:52:56;;;;;;;5.77;3.50;;;;;;;12.40;96.35;93376.59;6331754;22;20152;-84
2023/04/01 11:55:32;;;;;;;12.93;5.70;;;;;;;12.16;100.00;93386.72;6334831;22;20179;-86
2023/04/01 11:58:24;;;;;;;16.27;8.47;;;;;;;12.04;100.00;93372.38;6335095;22;20155;-84
2023/04/01 12:01:11;;;;;;;18.63;8.60;;;;;;;12.18;100.00;93389.09;6336657;22;20211;-84
2023/04/01 12:04:10;;;;;;;18.07;9.53;;;;;;;12.29;100.00;93401.06;6333081;22;20158;-84
2023/04/01 12:06:45;;;;;;;16.30;7.67;;;;;;;12.08;100.00;93357.81;6333670;22;20202;-85
2023/04/01 12:09:22;;;;;;;12.03;6.73;;;;;;;12.13;100.00;93387.25;6333240;22;20151;-85